HomeShort term forecast

Short term forecast

Graphical weather forecast for the next 48 hours for Montreal:

Short term forecast

This weather forecast is automatically refreshed every 3 hours.

Hourly Experimental Forecast for the next 48 hours ®

Overall summary: Rain starting tomorrow morning.

 Date & Hour   Temp   Feel   Baro   Hum   Speed & Bearing   Wind Gust   Precip.%   Precip.   Visibility   Cloud cover   Conditions 
 14/04/2021 - 05:00  6.8°C  4.3°C  1018.0 hPa  59%  13.1 km/h   24.9 km/h  1%  0.01 mm/h  16.1km  89%  Overcast 
 14/04/2021 - 06:00  6.2°C  3.5°C  1018.1 hPa  61%  13.2 km/h   24.2 km/h  1%  0.03 mm/h  16.1km  88%  Overcast 
 14/04/2021 - 07:00  5.8°C  3.1°C  1018.4 hPa  64%  12.7 km/h   24.3 km/h  1%  0.04 mm/h  16.1km  70%  Mostly Cloudy 
 14/04/2021 - 08:00  6.7°C  4.3°C  1018.4 hPa  64%  12.0 km/h   21.7 km/h  0%  --  16.1km  60%  Mostly Cloudy 
 14/04/2021 - 09:00  8.0°C  6.1°C  1018.3 hPa  62%  10.9 km/h   18.4 km/h  1%  0.02 mm/h  16.1km  43%  Partly Cloudy 
 14/04/2021 - 10:00  10.0°C  10.0°C  1017.9 hPa  59%  9.4 km/h   14.7 km/h  1%  0.05 mm/h  16.1km  42%  Partly Cloudy 
 14/04/2021 - 11:00  11.7°C  11.7°C  1017.3 hPa  56%  8.3 km/h   12.0 km/h  1%  0.04 mm/h  16.1km  45%  Partly Cloudy 
 14/04/2021 - 12:00  12.9°C  12.9°C  1016.6 hPa  54%  7.8 km/h   10.4 km/h  0%  --  16.1km  57%  Partly Cloudy 
 14/04/2021 - 13:00  14.0°C  14.0°C  1015.8 hPa  51%  8.0 km/h   10.2 km/h  1%  0.06 mm/h  16.1km  54%  Partly Cloudy 
 14/04/2021 - 14:00  14.5°C  14.5°C  1015.1 hPa  48%  7.6 km/h   8.7 km/h  1%  0.04 mm/h  16.1km  59%  Mostly Cloudy 
 14/04/2021 - 15:00  15.5°C  15.5°C  1014.2 hPa  44%  8.4 km/h   10.3 km/h  0%  --  16.1km  38%  Partly Cloudy 
 14/04/2021 - 16:00  16.3°C  16.3°C  1013.5 hPa  42%  7.8 km/h   9.3 km/h  0%  --  16.1km  35%  Partly Cloudy 
 14/04/2021 - 17:00  16.6°C  16.6°C  1012.9 hPa  42%  7.1 km/h   8.2 km/h  1%  0.02 mm/h  16.1km  48%  Partly Cloudy 
 14/04/2021 - 18:00  17.1°C  17.1°C  1012.6 hPa  45%  6.6 km/h   8.4 km/h  0%  --  16.1km  32%  Partly Cloudy 
 14/04/2021 - 19:00  15.9°C  15.9°C  1012.5 hPa  50%  5.6 km/h   7.9 km/h  0%  --  16.1km  41%  Partly Cloudy 
 14/04/2021 - 20:00  14.6°C  14.6°C  1012.5 hPa  54%  4.5 km/h   6.6 km/h  0%  --  16.1km  52%  Partly Cloudy 
 14/04/2021 - 21:00  13.5°C  13.5°C  1012.3 hPa  55%  5.0 km/h   10.0 km/h  0%  --  16.1km  61%  Mostly Cloudy 
 14/04/2021 - 22:00  12.7°C  12.7°C  1012.2 hPa  56%  5.5 km/h   13.4 km/h  0%  --  16.1km  63%  Mostly Cloudy 
 14/04/2021 - 23:00  11.9°C  11.9°C  1012.0 hPa  56%  7.6 km/h   18.3 km/h  0%  --  16.1km  53%  Partly Cloudy 
 15/04/2021 - 00:00  10.9°C  10.9°C  1011.6 hPa  58%  8.2 km/h   19.5 km/h  0%  --  16.1km  48%  Partly Cloudy 
 15/04/2021 - 01:00  9.9°C  8.9°C  1011.3 hPa  59%  8.4 km/h   17.8 km/h  0%  --  16.1km  46%  Partly Cloudy 
 15/04/2021 - 02:00  9.4°C  8.2°C  1010.9 hPa  59%  8.3 km/h   15.9 km/h  0%  --  16.1km  53%  Partly Cloudy 
 15/04/2021 - 03:00  8.7°C  7.5°C  1010.6 hPa  62%  7.7 km/h   14.7 km/h  0%  --  16.1km  42%  Partly Cloudy 
 15/04/2021 - 04:00  7.9°C  6.7°C  1010.3 hPa  64%  7.1 km/h   14.1 km/h  0%  --  16.1km  46%  Partly Cloudy 
 15/04/2021 - 05:00  7.3°C  6.0°C  1010.1 hPa  66%  7.1 km/h   14.9 km/h  0%  --  16.1km  59%  Partly Cloudy 
 15/04/2021 - 06:00  6.9°C  5.6°C  1010.0 hPa  68%  7.2 km/h   15.0 km/h  3%  0.04 mm/h  16.1km  65%  Mostly Cloudy 
 15/04/2021 - 07:00  7.0°C  5.6°C  1010.1 hPa  69%  7.6 km/h   15.2 km/h  16%  0.20 mm/h  16.1km  71%  Mostly Cloudy 
 15/04/2021 - 08:00  7.4°C  6.0°C  1010.2 hPa  69%  7.9 km/h   14.9 km/h  26%  0.35 mm/h  16.1km  74%  Possible Light Rain 
 15/04/2021 - 09:00  8.1°C  6.7°C  1010.1 hPa  71%  8.2 km/h   15.9 km/h  30%  0.37 mm/h  16.1km  86%  Possible Light Rain 
 15/04/2021 - 10:00  8.8°C  7.3°C  1009.9 hPa  74%  9.5 km/h   19.8 km/h  53%  0.78 mm/h  16.1km  88%  Possible Light Rain 
 15/04/2021 - 11:00  9.6°C  8.0°C  1009.4 hPa  77%  11.1 km/h   26.6 km/h  63%  0.96 mm/h  16.1km  90%  Rain 
 15/04/2021 - 12:00  10.4°C  10.4°C  1009.1 hPa  78%  13.9 km/h   35.6 km/h  72%  1.20 mm/h  15.9km  90%  Rain 
 15/04/2021 - 13:00  10.8°C  10.8°C  1008.6 hPa  76%  16.8 km/h   39.1 km/h  75%  1.25 mm/h  14.1km  90%  Rain 
 15/04/2021 - 14:00  11.4°C  11.4°C  1008.0 hPa  73%  17.6 km/h   37.7 km/h  75%  1.24 mm/h  12.2km  90%  Rain 
 15/04/2021 - 15:00  11.2°C  11.2°C  1007.6 hPa  73%  17.4 km/h   37.5 km/h  78%  1.35 mm/h  11.5km  90%  Rain 
 15/04/2021 - 16:00  10.7°C  10.7°C  1007.6 hPa  77%  16.1 km/h   36.1 km/h  82%  1.62 mm/h  11.9km  90%  Rain 
 15/04/2021 - 17:00  10.1°C  10.1°C  1007.7 hPa  80%  15.6 km/h   34.7 km/h  80%  1.58 mm/h  12.8km  90%  Rain 
 15/04/2021 - 18:00  9.8°C  7.6°C  1007.7 hPa  82%  15.7 km/h   31.5 km/h  79%  1.43 mm/h  14.1km  90%  Rain 
 15/04/2021 - 19:00  9.4°C  7.1°C  1007.9 hPa  80%  16.4 km/h   29.5 km/h  79%  1.54 mm/h  13.4km  90%  Rain 
 15/04/2021 - 20:00  9.3°C  6.7°C  1008.0 hPa  79%  17.6 km/h   33.0 km/h  82%  1.66 mm/h  16.1km  94%  Rain 
 15/04/2021 - 21:00  8.9°C  6.2°C  1008.2 hPa  78%  17.8 km/h   33.7 km/h  80%  1.46 mm/h  15.3km  94%  Rain 
 15/04/2021 - 22:00  8.4°C  5.6°C  1008.4 hPa  74%  18.5 km/h   34.2 km/h  78%  1.29 mm/h  14.9km  92%  Rain 
 15/04/2021 - 23:00  7.9°C  4.9°C  1008.4 hPa  72%  18.0 km/h   33.3 km/h  75%  1.15 mm/h  16.1km  91%  Rain 
 16/04/2021 - 00:00  7.4°C  4.5°C  1008.3 hPa  71%  16.1 km/h   30.6 km/h  65%  0.91 mm/h  16.1km  91%  Rain 
 16/04/2021 - 01:00  6.9°C  4.3°C  1008.4 hPa  72%  13.6 km/h   29.3 km/h  62%  0.96 mm/h  16.1km  91%  Rain 
 16/04/2021 - 02:00  6.6°C  4.4°C  1008.0 hPa  73%  11.0 km/h   25.5 km/h  48%  0.88 mm/h  16.1km  100%  Possible Light Rain 
 16/04/2021 - 03:00  6.1°C  3.8°C  1008.0 hPa  73%  10.8 km/h   22.9 km/h  43%  0.58 mm/h  16.0km  100%  Possible Light Rain 
 16/04/2021 - 04:00  5.7°C  3.4°C  1007.9 hPa  75%  10.7 km/h   16.8 km/h  43%  0.37 mm/h  15.1km  100%  Possible Light Rain 

 

Past weather and reports

Past weatherFind in this section the past weather conditions, weather archive, graphics, reports and statistics.

Current conditions

Current weather condition for MontrealAll you need to know about the current weather conditions for Montreal. Weather data is updated every 10 minutes.

Weather forecast

Current Montreal weatherSince 2004, celinium.com website has provided accurate weather forecast for Montreal's island.